Cat Lake, Canada
Current Conditions -  °F | °C
As of 8:00 PM on Friday 28 Nov 2014 (Local Time) from CYPL Reporting Station
Scattered Clouds Scattered Clouds  
Wind Chill: -17°   Ceiling: Unl
Heat Index: -6°   Visibility: 15mi
Dew Point: -11°   Wind: 5mph
Humidity: 77%   Direction: 110°ESE
Pressure: 29.9"   Gusts: NA
Location:  51.72°N, 91.8°W
Report Text: CYPL 290200Z 11004KT 15SM SCT040 SCT240 M21/M24 A2990 RMK SC3CI1 LAST OBS/NEXT 291100Z SLP172
Loading
Personal Weather Stations






























Interactive Weather Map New forecast layout! Learn more

10-Day Weather Forecast

Advertisements
Track Severe Weather on mobile